Time;durP1;ratioP1;P1;durP2;ratioP2;P2;SDS_P1;SDS_P2;PMS_P1;PMS_P2;Temp;Humidity;BMP_temperature;BMP_pressure;BME280_temperature;BME280_humidity;BME280_pressure;Samples;Min_cycle;Max_cycle;Signal;HPM_P1;HPM_P2
2021/07/16 00:01:00;;;;;;;2.20;1.40;;;16.70;99.90;;;;;;3561936;40;20690;-72
2021/07/16 00:03:26;;;;;;;1.80;1.20;;;16.50;99.90;;;;;;3555745;40;20650;-74
2021/07/16 00:05:52;;;;;;;2.00;1.30;;;;;;;;;;3557633;40;20381;-72
2021/07/16 00:08:18;;;;;;;3.90;1.27;;;;;;;;;;3560066;40;20383;-75
2021/07/16 00:10:46;;;;;;;2.38;1.15;;;;;;;;;;3562059;40;20383;-73
2021/07/16 00:13:12;;;;;;;3.03;1.30;;;;;;;;;;3560336;40;20383;-74
2021/07/16 00:15:38;;;;;;;4.03;1.40;;;;;;;;;;3549010;40;20415;-74
2021/07/16 00:18:05;;;;;;;1.40;1.05;;;;;;;;;;3558987;40;20430;-73
2021/07/16 00:20:31;;;;;;;2.58;1.20;;;;;;;;;;3553759;40;20469;-74
2021/07/16 00:22:57;;;;;;;2.08;1.17;;;;;;;;;;3563093;40;20376;-74
2021/07/16 00:25:23;;;;;;;4.07;1.40;;;;;;;;;;3561095;40;20363;-74
2021/07/16 00:27:52;;;;;;;3.40;1.52;;;;;;;;;;3549820;40;20414;-73
2021/07/16 00:30:19;;;;;;;2.30;1.30;;;;;;;;;;3562652;40;20376;-74
2021/07/16 00:32:45;;;;;;;1.95;1.33;;;;;;;;;;3568064;40;20380;-73
2021/07/16 00:35:12;;;;;;;3.27;1.47;;;;;;;;;;3562649;40;20492;-74
2021/07/16 00:37:38;;;;;;;2.35;1.30;;;;;;;;;;3546339;40;20417;-74
2021/07/16 00:40:06;;;;;;;2.23;1.43;;;;;;;;;;3549059;40;20415;-73
2021/07/16 00:42:32;;;;;;;2.88;1.35;;;;;;;;;;3562609;40;20398;-73
2021/07/16 00:45:00;;;;;;;3.25;1.38;;;;;;;;;;3563147;40;20383;-74
2021/07/16 00:47:26;;;;;;;3.17;1.70;;;;;;;;;;3558339;40;20506;-73
2021/07/16 00:49:52;;;;;;;2.30;1.45;;;;;;;;;;3562560;40;20375;-72
2021/07/16 00:52:18;;;;;;;3.17;1.50;;;;;;;;;;3559865;40;20413;-73
2021/07/16 00:54:44;;;;;;;1.98;1.23;;;;;;;;;;3564123;40;20376;-73
2021/07/16 00:57:11;;;;;;;3.85;1.45;;;;;;;;;;3555767;40;20348;-73
2021/07/16 00:59:37;;;;;;;2.47;1.20;;;;;;;;;;3557056;40;20411;-74
2021/07/16 01:04:56;;;;;;;2.50;1.40;;;;;;;;;;3576473;40;20410;-68
2021/07/16 01:07:22;;;;;;;1.80;1.10;;;;;;;;;;3578054;40;20399;-67
2021/07/16 01:09:50;;;;;;;2.40;1.30;;;;;;;;;;3577457;40;20384;-67
2021/07/16 01:12:17;;;;;;;1.35;1.20;;;;;;;;;;3577057;40;20373;-68
2021/07/16 01:14:43;;;;;;;6.90;1.57;;;;;;;;;;3575161;40;20766;-67
2021/07/16 01:17:10;;;;;;;1.60;1.10;;;;;;;;;;3577220;40;20436;-67
2021/07/16 01:19:41;;;;;;;3.00;1.23;;;;;;;;;;3566835;40;20368;-65
2021/07/16 01:22:10;;;;;;;4.97;1.42;;;;;;;;;;3577144;40;20375;-65
2021/07/16 01:24:38;;;;;;;5.88;1.50;;;;;;;;;;3579445;40;20380;-65
2021/07/16 01:27:05;;;;;;;5.25;1.80;;;;;;;;;;3574860;40;20393;-65
2021/07/16 01:29:31;;;;;;;4.03;1.50;;;;;;;;;;3579024;40;20399;-64
2021/07/16 01:31:57;;;;;;;4.10;1.65;;;;;;;;;;3578298;40;20438;-65
2021/07/16 01:34:23;;;;;;;2.70;1.40;;;;;;;;;;3577366;40;20641;-65
2021/07/16 01:36:49;;;;;;;3.20;1.80;;;;;;;;;;3557606;40;20396;-64
2021/07/16 01:39:15;;;;;;;3.25;1.23;;;;;;;;;;3574615;40;20614;-64
2021/07/16 01:41:43;;;;;;;4.63;1.40;;;;;;;;;;3577038;40;20369;-64
2021/07/16 01:44:09;;;;;;;3.05;1.20;;;;;;;;;;3574182;40;20951;-63
2021/07/16 01:46:35;;;;;;;4.22;1.13;;;;;;;;;;3575414;40;20390;-64
2021/07/16 01:49:02;;;;;;;3.95;1.50;;;;;;;;;;3576838;40;20382;-64
2021/07/16 01:51:28;;;;;;;2.15;1.52;;;;;;;;;;3576698;40;20474;-64
2021/07/16 01:53:54;;;;;;;2.05;1.10;;;;;;;;;;3577143;40;20422;-64
2021/07/16 01:56:23;;;;;;;3.35;1.50;;;;;;;;;;3572047;40;20431;-64
2021/07/16 01:58:51;;;;;;;4.45;1.60;;;;;;;;;;3575045;40;20392;-63
2021/07/16 02:01:17;;;;;;;2.00;1.20;;;;;;;;;;3570994;40;20384;-64
2021/07/16 02:03:44;;;;;;;1.90;1.30;;;;;;;;;;3560037;40;20410;-64
2021/07/16 02:06:10;;;;;;;3.90;1.27;;;;;;;;;;3565891;40;20759;-63
2021/07/16 02:08:36;;;;;;;3.58;1.40;;;;;;;;;;3566311;40;20417;-64
2021/07/16 02:11:03;;;;;;;3.03;1.58;;;;;;;;;;3567657;40;20671;-64
2021/07/16 02:13:29;;;;;;;1.93;1.00;;;;;;;;;;3566078;40;20462;-64
2021/07/16 02:15:56;;;;;;;4.20;1.52;;;;;;;;;;3560060;40;20407;-64
2021/07/16 02:18:23;;;;;;;2.83;1.08;;;;;;;;;;3566820;40;20650;-64
2021/07/16 02:20:50;;;;;;;2.05;1.10;;;;;;;;;;3566454;40;20409;-63
2021/07/16 02:23:17;;;;;;;1.40;1.00;;;;;;;;;;3566678;40;20415;-65
2021/07/16 02:25:43;;;;;;;2.05;1.20;;;;;;;;;;3566781;40;20378;-65
2021/07/16 02:28:12;;;;;;;2.75;1.20;;;;;;;;;;3566278;40;20417;-65
2021/07/16 02:30:38;;;;;;;2.30;1.40;;;;;;;;;;3566175;40;20373;-65
2021/07/16 02:33:06;;;;;;;1.67;1.20;;;;;;;;;;3565782;40;20484;-66
2021/07/16 02:35:32;;;;;;;4.50;1.83;;;;;;;;;;3555231;40;20460;-66
2021/07/16 02:37:59;;;;;;;2.25;1.30;;;;;;;;;;3567307;40;20368;-71
2021/07/16 02:40:26;;;;;;;3.42;1.58;;;;;;;;;;3567453;40;20705;-72
2021/07/16 02:42:52;;;;;;;3.85;1.40;;;;;;;;;;3567375;40;20762;-65
2021/07/16 02:45:20;;;;;;;4.97;1.37;;;;;;;;;;3568550;40;20373;-65
2021/07/16 02:47:47;;;;;;;2.92;1.23;;;;;;;;;;3565803;40;20378;-65
2021/07/16 02:50:15;;;;;;;3.15;1.55;;;;;;;;;;3566723;40;20459;-65
2021/07/16 02:52:41;;;;;;;2.80;1.20;;;;;;;;;;3566782;40;20455;-65
2021/07/16 02:55:08;;;;;;;4.65;1.60;;;;;;;;;;3567082;40;20378;-64
2021/07/16 02:57:34;;;;;;;5.78;1.40;;;;;;;;;;3567883;40;20355;-64
2021/07/16 03:00:01;;;;;;;5.25;1.52;;;;;;;;;;3564148;40;20366;-65
2021/07/16 03:02:27;;;;;;;3.17;1.40;;;;;;;;;;3566289;40;20457;-65
2021/07/16 03:04:54;;;;;;;4.80;1.60;;;;;;;;;;3571977;40;20670;-65
2021/07/16 03:07:21;;;;;;;4.55;1.70;;;;;;;;;;3568383;40;20378;-64
2021/07/16 03:09:47;;;;;;;2.70;1.10;;;;;;;;;;3576011;40;20391;-64
2021/07/16 03:12:13;;;;;;;3.83;1.20;;;;;;;;;;3563864;40;20398;-64
2021/07/16 03:14:40;;;;;;;2.95;1.20;;;;;;;;;;3567432;40;20413;-64
2021/07/16 03:17:06;;;;;;;3.47;1.15;;;;;;;;;;3576696;40;20386;-65
2021/07/16 03:19:32;;;;;;;3.80;1.10;;;;;;;;;;3576157;40;20390;-65
2021/07/16 03:21:59;;;;;;;2.75;1.35;;;;;;;;;;3575744;40;20372;-65
2021/07/16 03:24:27;;;;;;;3.75;1.10;;;;;;;;;;3565258;40;20778;-65
2021/07/16 03:26:53;;;;;;;2.70;1.30;;;16.50;99.90;;;;;;3564335;40;20487;-64
2021/07/16 03:29:19;;;;;;;4.50;1.58;;;15.90;99.90;;;;;;3572381;40;20818;-64
2021/07/16 03:31:45;;;;;;;2.30;1.10;;;;;;;;;;3571012;40;20387;-65
2021/07/16 03:34:11;;;;;;;7.00;1.40;;;;;;;;;;3576631;40;20372;-64
2021/07/16 03:36:37;;;;;;;2.25;1.27;;;;;;;;;;3568187;40;20388;-64
2021/07/16 03:39:05;;;;;;;5.97;2.23;;;;;;;;;;3573280;40;20367;-64
2021/07/16 03:41:32;;;;;;;3.05;1.48;;;;;;;;;;3572809;40;20381;-64
2021/07/16 03:43:58;;;;;;;3.50;1.40;;;;;;;;;;3573274;40;20375;-65
2021/07/16 03:46:27;;;;;;;4.35;1.48;;;15.90;99.90;;;;;;3564161;40;20390;-64
2021/07/16 03:48:54;;;;;;;3.38;1.55;;;;;;;;;;3568759;40;20411;-64
2021/07/16 03:51:20;;;;;;;3.13;1.37;;;;;;;;;;3575568;40;20384;-65
2021/07/16 03:53:46;;;;;;;3.72;1.60;;;;;;;;;;3568208;40;20366;-64
2021/07/16 03:56:12;;;;;;;4.72;2.00;;;;;;;;;;3564580;40;20401;-65
2021/07/16 03:58:41;;;;;;;3.35;1.58;;;;;;;;;;3568485;40;20382;-65
2021/07/16 04:01:07;;;;;;;2.95;1.33;;;;;;;;;;3572974;40;20404;-65
2021/07/16 04:03:33;;;;;;;1.60;1.15;;;;;;;;;;3568963;40;20636;-65
2021/07/16 04:05:59;;;;;;;1.27;1.17;;;;;;;;;;3572530;40;20391;-65
2021/07/16 04:08:26;;;;;;;2.80;1.35;;;;;;;;;;3564303;40;20412;-64
2021/07/16 04:10:52;;;;;;;4.05;1.38;;;;;;;;;;3571318;40;20390;-65
2021/07/16 04:13:18;;;;;;;4.68;1.80;;;;;;;;;;3573060;40;20371;-65
2021/07/16 04:15:46;;;;;;;1.90;1.30;;;;;;;;;;3570471;40;20376;-65
2021/07/16 04:18:12;;;;;;;3.75;1.73;;;;;;;;;;3570952;40;20388;-65
2021/07/16 04:20:39;;;;;;;3.08;1.10;;;;;;;;;;3572356;40;20393;-65
2021/07/16 04:23:06;;;;;;;4.65;1.60;;;;;;;;;;3567210;40;20369;-65
2021/07/16 04:25:33;;;;;;;2.15;1.20;;;;;;;;;;3576105;40;20365;-65
2021/07/16 04:28:01;;;;;;;4.85;1.60;;;;;;;;;;3574999;40;20372;-64
2021/07/16 04:30:27;;;;;;;2.78;1.30;;;;;;;;;;3570784;40;20362;-66
2021/07/16 04:32:55;;;;;;;4.93;1.50;;;;;;;;;;3566589;40;20492;-65
2021/07/16 04:35:22;;;;;;;3.90;1.70;;;;;;;;;;3554802;40;20696;-65
2021/07/16 04:37:48;;;;;;;3.05;1.50;;;;;;;;;;3574396;40;20631;-64
2021/07/16 04:40:16;;;;;;;3.88;1.48;;;;;;;;;;3567730;40;20720;-65
2021/07/16 04:42:42;;;;;;;2.65;1.20;;;;;;;;;;3566610;40;20388;-64
2021/07/16 04:45:09;;;;;;;5.68;1.65;;;;;;;;;;3576094;40;20813;-64
2021/07/16 04:47:36;;;;;;;4.85;1.52;;;;;;;;;;3577435;40;20431;-64
2021/07/16 04:50:04;;;;;;;2.00;1.50;;;;;;;;;;3573502;40;20372;-65
2021/07/16 04:52:30;;;;;;;5.57;1.45;;;;;;;;;;3576395;40;20546;-64
2021/07/16 04:54:56;;;;;;;5.35;2.05;;;;;;;;;;3577094;40;20391;-65
2021/07/16 04:57:22;;;;;;;3.38;1.83;;;;;;;;;;3576994;40;20479;-63
2021/07/16 04:59:50;;;;;;;2.40;1.63;;;;;;;;;;3568971;40;20431;-64
2021/07/16 05:02:16;;;;;;;2.58;1.77;;;;;;;;;;3572161;40;20397;-65
2021/07/16 05:04:42;;;;;;;3.53;1.80;;;15.60;99.90;;;;;;3571786;40;20407;-65
2021/07/16 05:07:09;;;;;;;2.50;1.60;;;;;;;;;;3572144;40;20408;-66
2021/07/16 05:09:36;;;;;;;4.47;1.63;;;;;;;;;;3570800;40;20763;-65
2021/07/16 05:12:03;;;;;;;3.23;1.77;;;;;;;;;;3567800;40;20459;-65
2021/07/16 05:14:29;;;;;;;2.63;1.20;;;;;;;;;;3577144;40;20392;-65
2021/07/16 05:16:56;;;;;;;2.15;1.30;;;15.90;99.90;;;;;;3570204;40;20392;-65
2021/07/16 05:19:22;;;;;;;2.65;1.90;;;16.40;99.90;;;;;;3568965;40;20410;-65
2021/07/16 05:21:47;;;;;;;1.42;1.30;;;16.40;99.90;;;;;;3573961;40;20380;-65
2021/07/16 05:24:15;;;;;;;2.47;1.13;;;16.40;99.90;;;;;;3573166;40;20842;-65
2021/07/16 05:26:41;;;;;;;3.15;0.95;;;16.50;99.90;;;;;;3575468;40;20361;-65
2021/07/16 05:29:07;;;;;;;1.60;0.70;;;;;;;;;;3573709;40;20561;-65
2021/07/16 05:31:33;;;;;;;2.38;0.90;;;;;;;;;;3573185;40;20466;-65
2021/07/16 05:33:59;;;;;;;1.30;0.50;;;;;;;;;;3574771;40;20392;-64
2021/07/16 05:36:25;;;;;;;1.83;0.77;;;;;;;;;;3568837;40;20385;-65
2021/07/16 05:38:53;;;;;;;2.88;0.90;;;;;;;;;;3575225;40;20414;-65
2021/07/16 05:41:20;;;;;;;3.70;0.80;;;;;;;;;;3573631;40;20374;-65
2021/07/16 05:43:46;;;;;;;1.85;0.70;;;;;;;;;;3573966;40;20397;-65
2021/07/16 05:46:12;;;;;;;0.93;0.60;;;16.60;99.90;;;;;;3569354;40;20376;-65
2021/07/16 05:48:44;;;;;;;3.03;0.70;;;;;;;;;;3574510;40;20510;-66
2021/07/16 05:51:10;;;;;;;1.17;0.52;;;;;;;;;;3569877;40;20389;-65
2021/07/16 05:53:36;;;;;;;2.80;0.90;;;;;;;;;;3570317;40;20459;-65
2021/07/16 05:56:03;;;;;;;0.75;0.50;;;;;;;;;;3577434;40;20386;-66
2021/07/16 05:58:30;;;;;;;2.95;0.70;;;;;;;;;;3572926;40;20371;-65
2021/07/16 06:00:57;;;;;;;0.60;0.40;;;;;;;;;;3577908;40;20486;-65
2021/07/16 06:03:23;;;;;;;0.98;0.30;;;;;;;;;;3571779;40;20417;-65
2021/07/16 06:05:49;;;;;;;3.53;0.50;;;;;;;;;;3573076;40;20392;-64
2021/07/16 06:08:15;;;;;;;0.93;0.60;;;;;;;;;;3573787;40;20379;-65
2021/07/16 06:10:41;;;;;;;1.15;0.30;;;17.80;99.90;;;;;;3570669;40;20384;-65
2021/07/16 06:13:08;;;;;;;1.10;0.30;;;;;;;;;;3576103;40;20374;-68
2021/07/16 06:15:35;;;;;;;0.75;0.30;;;;;;;;;;3573353;40;20373;-65
2021/07/16 06:18:02;;;;;;;1.30;0.20;;;;;;;;;;3570063;40;20477;-65
2021/07/16 06:20:28;;;;;;;1.20;0.10;;;;;;;;;;3573765;40;20630;-67
2021/07/16 06:22:55;;;;;;;0.80;0.10;;;;;;;;;;3567867;40;20401;-65
2021/07/16 06:25:21;;;;;;;0.70;0.10;;;;;;;;;;3571515;40;20731;-65
2021/07/16 06:27:47;;;;;;;1.00;0.20;;;;;;;;;;3573580;40;20388;-69
2021/07/16 06:30:14;;;;;;;2.13;0.10;;;;;;;;;;3570590;40;20408;-65
2021/07/16 06:32:42;;;;;;;0.98;0.10;;;;;;;;;;3579768;40;20794;-65
2021/07/16 06:35:09;;;;;;;0.17;0.10;;;;;;;;;;3569488;40;20399;-65
2021/07/16 06:37:35;;;;;;;0.40;0.00;;;;;;;;;;3580193;40;20372;-65
2021/07/16 06:40:02;;;;;;;0.65;0.10;;;;;;;;;;3569135;40;20499;-65
2021/07/16 06:42:28;;;;;;;1.23;0.00;;;;;;;;;;3573540;40;20716;-65
2021/07/16 06:44:54;;;;;;;0.47;0.03;;;;;;;;;;3576652;40;20450;-65
2021/07/16 06:47:21;;;;;;;2.50;0.50;;;;;;;;;;3579111;40;20727;-65
2021/07/16 06:49:48;;;;;;;0.40;0.10;;;;;;;;;;3576501;40;20372;-65
2021/07/16 06:52:14;;;;;;;1.52;0.10;;;;;;;;;;3573884;40;20376;-65
2021/07/16 06:54:41;;;;;;;0.60;0.00;;;;;;;;;;3570931;40;20382;-65
2021/07/16 06:57:07;;;;;;;1.20;0.10;;;;;;;;;;3562496;40;20714;-65
2021/07/16 06:59:33;;;;;;;1.00;0.10;;;;;;;;;;3571559;40;20410;-65
2021/07/16 07:01:59;;;;;;;0.60;0.00;;;;;;;;;;3571595;40;20384;-65
2021/07/16 07:04:25;;;;;;;1.10;0.10;;;;;;;;;;3572771;40;20412;-65
2021/07/16 07:06:53;;;;;;;1.05;0.05;;;;;;;;;;3566049;40;20779;-65
2021/07/16 07:09:19;;;;;;;1.27;0.10;;;;;;;;;;3577739;40;20381;-65
2021/07/16 07:11:45;;;;;;;0.43;0.00;;;;;;;;;;3576821;40;20368;-65
2021/07/16 07:14:11;;;;;;;0.28;0.10;;;;;;;;;;3573460;40;20495;-65
2021/07/16 07:16:37;;;;;;;3.07;0.10;;;;;;;;;;3574905;40;20379;-65
2021/07/16 07:19:04;;;;;;;0.15;0.00;;;;;;;;;;3576791;40;20840;-65
2021/07/16 07:21:30;;;;;;;0.30;0.03;;;;;;;;;;3577747;40;20372;-65
2021/07/16 07:23:58;;;;;;;0.98;0.10;;;;;;;;;;3571254;40;20418;-65
2021/07/16 07:26:24;;;;;;;0.85;0.10;;;;;;;;;;3573373;40;20387;-65
2021/07/16 07:28:50;;;;;;;0.13;0.03;;;;;;;;;;3576225;40;20411;-64
2021/07/16 07:31:17;;;;;;;1.48;0.20;;;;;;;;;;3572068;40;20388;-65
2021/07/16 07:33:43;;;;;;;0.95;0.10;;;;;;;;;;3575264;40;20368;-66
2021/07/16 07:36:09;;;;;;;0.25;0.03;;;;;;;;;;3578905;40;20384;-66
2021/07/16 07:38:36;;;;;;;1.17;0.20;;;;;;;;;;3577013;40;20759;-66
2021/07/16 07:41:05;;;;;;;1.08;0.10;;;;;;;;;;3570480;40;20445;-65
2021/07/16 07:43:31;;;;;;;0.30;0.10;;;;;;;;;;3577087;40;20752;-66
2021/07/16 07:45:57;;;;;;;1.90;0.20;;;;;;;;;;3574984;40;20356;-66
2021/07/16 07:48:23;;;;;;;1.30;0.10;;;;;;;;;;3564681;40;20430;-65
2021/07/16 07:50:49;;;;;;;1.83;0.10;;;19.20;99.90;;;;;;3559678;40;20485;-65
2021/07/16 07:53:15;;;;;;;0.90;0.10;;;21.00;99.90;;;;;;3573180;40;20394;-65
2021/07/16 07:55:41;;;;;;;0.60;0.10;;;21.10;99.80;;;;;;3568236;40;20406;-65
2021/07/16 07:58:09;;;;;;;0.55;0.10;;;;;;;;;;3567734;40;20489;-65
2021/07/16 08:00:36;;;;;;;0.30;0.20;;;;;;;;;;3567532;40;20416;-65
2021/07/16 08:03:02;;;;;;;0.90;0.10;;;;;;;;;;3570373;40;20401;-65
2021/07/16 08:05:28;;;;;;;1.70;0.20;;;;;;;;;;3561922;40;20423;-65
2021/07/16 08:07:54;;;;;;;1.08;0.10;;;;;;;;;;3570772;40;20393;-66
2021/07/16 08:10:22;;;;;;;0.57;0.08;;;;;;;;;;3570163;40;20688;-65
2021/07/16 08:12:49;;;;;;;0.90;0.10;;;;;;;;;;3576891;40;20740;-66
2021/07/16 08:15:17;;;;;;;0.30;0.10;;;;;;;;;;3574768;40;20364;-66
2021/07/16 08:17:43;;;;;;;0.20;0.20;;;;;;;;;;3575233;40;20760;-66
2021/07/16 08:20:10;;;;;;;0.60;0.20;;;;;;;;;;3570947;40;20770;-65
2021/07/16 08:22:36;;;;;;;0.63;0.20;;;;;;;;;;3578668;40;20565;-66
2021/07/16 08:25:03;;;;;;;1.23;0.20;;;;;;;;;;3577455;40;20414;-66
2021/07/16 08:27:29;;;;;;;0.50;0.10;;;;;;;;;;3575016;40;20404;-67
2021/07/16 08:29:56;;;;;;;1.00;0.10;;;;;;;;;;3573628;40;20360;-66
2021/07/16 08:32:23;;;;;;;1.30;0.10;;;;;;;;;;3577045;40;20455;-69
2021/07/16 08:34:49;;;;;;;0.50;0.17;;;;;;;;;;3576637;40;20749;-66
2021/07/16 08:37:15;;;;;;;0.20;0.10;;;;;;;;;;3568218;40;20508;-66
2021/07/16 08:39:41;;;;;;;1.63;0.10;;;21.20;99.90;;;;;;3566995;40;20676;-66
2021/07/16 08:42:08;;;;;;;0.10;0.00;;;;;;;;;;3575313;40;20433;-67
2021/07/16 08:44:36;;;;;;;0.52;0.28;;;22.40;98.50;;;;;;3567151;40;20410;-66
2021/07/16 08:47:02;;;;;;;1.50;0.20;;;;;;;;;;3578334;40;20388;-66
2021/07/16 08:49:30;;;;;;;0.35;0.20;;;;;;;;;;3566357;40;20414;-66
2021/07/16 08:51:57;;;;;;;0.53;0.20;;;;;;;;;;3567761;40;20400;-66
2021/07/16 08:54:24;;;;;;;0.30;0.20;;;;;;;;;;3565009;40;20654;-66
2021/07/16 08:56:50;;;;;;;0.82;0.30;;;;;;;;;;3566101;40;20374;-66
2021/07/16 08:59:16;;;;;;;2.72;0.30;;;;;;;;;;3573889;40;20372;-67
2021/07/16 09:01:44;;;;;;;0.40;0.30;;;;;;;;;;3573531;40;20684;-66
2021/07/16 09:04:11;;;;;;;1.10;0.30;;;;;;;;;;3574053;40;20426;-66
2021/07/16 09:06:45;;;;;;;1.45;0.22;;;;;;;;;;3572722;40;20378;-66
2021/07/16 09:09:12;;;;;;;1.88;0.38;;;;;;;;;;3567350;40;20671;-67
2021/07/16 09:11:39;;;;;;;0.60;0.25;;;;;;;;;;3576302;40;20368;-66
2021/07/16 09:14:05;;;;;;;0.93;0.30;;;;;;;;;;3565794;40;20449;-66
2021/07/16 09:16:31;;;;;;;0.30;0.13;;;;;;;;;;3575154;40;20712;-67
2021/07/16 09:18:57;;;;;;;0.30;0.10;;;;;;;;;;3577085;40;20373;-66
2021/07/16 09:21:23;;;;;;;0.20;0.10;;;22.50;99.00;;;;;;3573829;40;20367;-66
2021/07/16 09:23:51;;;;;;;1.43;0.20;;;25.30;95.20;;;;;;3571310;40;20364;-67
2021/07/16 09:26:23;;;;;;;1.20;0.30;;;;;;;;;;3565750;40;20489;-67
2021/07/16 09:28:50;;;;;;;0.60;0.30;;;25.30;94.80;;;;;;3570509;40;20418;-66
2021/07/16 09:31:18;;;;;;;0.98;0.20;;;25.50;95.00;;;;;;3579197;40;20375;-66
2021/07/16 09:33:49;;;;;;;2.25;0.50;;;25.40;94.80;;;;;;3566561;40;20443;-66
2021/07/16 09:36:25;;;;;;;1.70;0.50;;;25.30;97.60;;;;;;3576096;40;20395;-66
2021/07/16 09:38:54;;;;;;;1.20;0.50;;;25.10;97.90;;;;;;3573195;40;20709;-66
2021/07/16 09:41:20;;;;;;;2.10;0.60;;;25.00;98.10;;;;;;3573470;40;20530;-67
2021/07/16 09:43:50;;;;;;;2.60;0.55;;;24.80;98.90;;;;;;3565976;40;20432;-66
2021/07/16 09:46:16;;;;;;;2.63;0.90;;;24.70;99.20;;;;;;3573418;40;20766;-66
2021/07/16 09:48:43;;;;;;;2.15;0.75;;;24.40;99.10;;;;;;3569202;40;20493;-66
2021/07/16 09:51:15;;;;;;;2.20;0.65;;;24.20;99.10;;;;;;3570127;40;20737;-66
2021/07/16 09:53:42;;;;;;;1.67;0.40;;;24.20;99.90;;;;;;3577824;40;20522;-66
2021/07/16 09:56:11;;;;;;;1.30;0.40;;;24.30;98.10;;;;;;3579283;40;20831;-67
2021/07/16 09:58:37;;;;;;;1.73;0.60;;;24.50;98.40;;;;;;3568396;40;20633;-66
2021/07/16 10:01:03;;;;;;;1.48;0.73;;;24.70;99.80;;;;;;3567701;40;20397;-66
2021/07/16 10:03:30;;;;;;;1.17;0.60;;;24.70;99.40;;;;;;3574173;40;20388;-66
2021/07/16 10:05:59;;;;;;;2.38;0.60;;;24.60;99.30;;;;;;3567649;40;20722;-66
2021/07/16 10:08:31;;;;;;;2.13;0.70;;;24.50;99.00;;;;;;3573073;40;20388;-66
2021/07/16 10:11:02;;;;;;;1.80;0.45;;;24.50;99.70;;;;;;3568970;40;20397;-67
2021/07/16 10:13:31;;;;;;;2.65;0.63;;;24.50;98.20;;;;;;3576909;40;20457;-69
2021/07/16 10:15:57;;;;;;;3.50;1.10;;;24.30;99.90;;;;;;3575759;40;20428;-67
2021/07/16 10:18:25;;;;;;;2.20;0.70;;;24.30;99.90;;;;;;3575368;40;20395;-67
2021/07/16 10:20:50;;;;;;;2.65;0.80;;;24.10;99.90;;;;;;3574630;40;20480;-66
2021/07/16 10:23:18;;;;;;;2.92;0.90;;;;;;;;;;3570705;40;20417;-66
2021/07/16 10:25:46;;;;;;;3.10;0.90;;;23.90;99.90;;;;;;3574618;40;20428;-66
2021/07/16 10:28:29;;;;;;;2.30;0.30;;;23.50;99.90;;;;;;3563405;40;20413;-65
2021/07/16 10:30:55;;;;;;;1.30;0.32;;;23.50;98.20;;;;;;3573670;40;20402;-66
2021/07/16 10:33:33;;;;;;;2.25;0.60;;;23.70;99.30;;;;;;3573991;40;20390;-66
2021/07/16 10:35:59;;;;;;;1.00;0.20;;;23.90;99.90;;;;;;3573617;40;20623;-66
2021/07/16 10:38:32;;;;;;;0.38;0.20;;;24.20;97.90;;;;;;3574280;40;20435;-66
2021/07/16 10:41:00;;;;;;;0.90;0.60;;;24.30;97.30;;;;;;3571001;40;20415;-66
2021/07/16 10:43:40;;;;;;;1.37;0.40;;;;;;;;;;3571038;40;20410;-66
2021/07/16 10:46:31;;;;;;;2.50;0.50;;;24.50;98.50;;;;;;3569823;40;20404;-66
2021/07/16 10:48:57;;;;;;;1.20;0.40;;;;;;;;;;3577047;40;20479;-66
2021/07/16 10:51:24;;;;;;;1.77;0.55;;;;;;;;;;3568790;40;20390;-66
2021/07/16 10:53:51;;;;;;;2.42;0.50;;;;;;;;;;3568613;40;20466;-66
2021/07/16 10:56:19;;;;;;;1.53;0.57;;;;;;;;;;3569026;40;20497;-66
2021/07/16 10:58:51;;;;;;;1.80;0.50;;;;;;;;;;3576562;40;20428;-67
2021/07/16 11:01:30;;;;;;;2.93;0.70;;;;;;;;;;3569099;40;20384;-66
2021/07/16 11:04:17;;;;;;;2.50;0.75;;;;;;;;;;3572914;40;20673;-66
2021/07/16 11:06:54;;;;;;;2.13;0.75;;;;;;;;;;3564364;40;20469;-67
2021/07/16 11:09:55;;;;;;;2.22;0.60;;;;;;;;;;3564920;40;20431;-68
2021/07/16 11:12:48;;;;;;;2.20;0.50;;;;;;;;;;3532381;40;20414;-68
2021/07/16 11:15:43;;;;;;;1.50;0.50;;;;;;;;;;3531846;40;20402;-67
2021/07/16 11:18:27;;;;;;;1.85;0.50;;;;;;;;;;3567167;40;20392;-68
2021/07/16 11:24:34;;;;;;;1.20;0.50;;;;;;;;;;3574141;40;20386;-69
2021/07/16 11:27:11;;;;;;;2.28;0.50;;;;;;;;;;3562152;40;20481;-68
2021/07/16 11:29:42;;;;;;;1.77;0.63;;;;;;;;;;3572039;40;20417;-68
2021/07/16 11:32:11;;;;;;;1.65;0.60;;;;;;;;;;3573947;40;20384;-68
2021/07/16 11:34:38;;;;;;;2.43;0.60;;;;;;;;;;3574333;40;20396;-68
2021/07/16 11:37:05;;;;;;;0.90;0.40;;;;;;;;;;3574688;40;20459;-68
2021/07/16 11:39:33;;;;;;;1.88;0.70;;;;;;;;;;3578192;40;20417;-67
2021/07/16 11:41:59;;;;;;;1.55;0.70;;;;;;;;;;3574593;40;20450;-65
2021/07/16 11:44:26;;;;;;;1.35;0.60;;;;;;;;;;3573212;40;20835;-65
2021/07/16 11:46:52;;;;;;;1.25;0.40;;;;;;;;;;3571517;40;20756;-65
2021/07/16 11:49:27;;;;;;;1.10;0.45;;;;;;;;;;3574428;40;20593;-67
2021/07/16 11:51:57;;;;;;;1.70;0.60;;;;;;;;;;3572015;40;20398;-67
2021/07/16 11:54:24;;;;;;;2.00;0.80;;;;;;;;;;3573723;40;20375;-67
2021/07/16 11:56:53;;;;;;;2.40;0.50;;;;;;;;;;3578022;40;20391;-68
2021/07/16 11:59:20;;;;;;;1.40;0.60;;;;;;;;;;3573574;40;20372;-67
2021/07/16 12:02:01;;;;;;;1.17;0.60;;;;;;;;;;3572051;40;20489;-68
2021/07/16 12:04:29;;;;;;;0.60;0.40;;;;;;;;;;3570775;40;20771;-68
2021/07/16 12:06:55;;;;;;;2.38;0.60;;;;;;;;;;3556827;40;20862;-68
2021/07/16 12:09:30;;;;;;;1.13;0.43;;;24.90;98.20;;;;;;3555911;40;20397;-67
2021/07/16 12:12:00;;;;;;;1.23;0.50;;;;;;;;;;3565810;40;20672;-68
2021/07/16 12:14:26;;;;;;;1.35;0.40;;;;;;;;;;3565088;40;20459;-68
2021/07/16 12:16:52;;;;;;;1.17;0.40;;;26.40;95.20;;;;;;3565427;40;20382;-70
2021/07/16 12:19:18;;;;;;;0.77;0.30;;;27.10;92.40;;;;;;3565299;40;20412;-68
2021/07/16 12:21:46;;;;;;;1.95;0.50;;;;;;;;;;3564947;40;20393;-68
2021/07/16 12:24:12;;;;;;;1.83;0.40;;;;;;;;;;3568036;40;20380;-68
2021/07/16 12:26:38;;;;;;;1.75;0.60;;;;;;;;;;3558828;40;20382;-68
2021/07/16 12:29:06;;;;;;;2.15;0.70;;;;;;;;;;3565220;40;20468;-67
2021/07/16 12:31:34;;;;;;;0.77;0.50;;;;;;;;;;3566558;40;20370;-68
2021/07/16 12:34:01;;;;;;;1.45;0.55;;;;;;;;;;3566419;40;20377;-66
2021/07/16 12:36:28;;;;;;;1.30;0.43;;;;;;;;;;3556788;40;20751;-65
2021/07/16 12:38:57;;;;;;;2.28;0.52;;;;;;;;;;3565590;40;20363;-66
2021/07/16 12:41:23;;;;;;;1.60;0.52;;;;;;;;;;3565591;40;20378;-68
2021/07/16 12:43:50;;;;;;;2.60;0.40;;;;;;;;;;3565617;40;20841;-69
2021/07/16 12:46:23;;;;;;;1.93;0.60;;;;;;;;;;3565775;40;20378;-68
2021/07/16 12:48:49;;;;;;;1.03;0.40;;;;;;;;;;3567552;40;20370;-68
2021/07/16 12:51:16;;;;;;;1.27;0.57;;;;;;;;;;3570112;40;20393;-65
2021/07/16 12:53:43;;;;;;;1.58;0.50;;;;;;;;;;3566813;40;20639;-65
2021/07/16 12:56:18;;;;;;;1.40;0.60;;;;;;;;;;3567332;40;20378;-65
2021/07/16 12:58:44;;;;;;;1.70;0.80;;;27.30;94.40;;;;;;3567461;40;20377;-67
2021/07/16 13:01:11;;;;;;;1.75;0.65;;;26.10;98.80;;;;;;3566776;40;20445;-65
2021/07/16 13:03:39;;;;;;;2.88;0.80;;;25.90;99.80;;;;;;3567722;40;20495;-65
2021/07/16 13:06:20;;;;;;;2.60;0.93;;;25.70;99.90;;;;;;3566706;40;20405;-66
2021/07/16 13:09:11;;;;;;;2.35;0.80;;;25.50;99.90;;;;;;3569738;40;20401;-68
2021/07/16 13:11:39;;;;;;;1.60;0.77;;;25.30;99.90;;;;;;3568646;40;20373;-68
2021/07/16 13:14:05;;;;;;;1.70;0.80;;;25.30;99.90;;;;;;3567316;40;20370;-68
2021/07/16 13:16:31;;;;;;;2.80;1.00;;;25.20;99.90;;;;;;3567031;40;20405;-67
2021/07/16 13:18:59;;;;;;;2.92;0.93;;;25.20;99.90;;;;;;3557706;40;20453;-68
2021/07/16 13:21:26;;;;;;;3.43;0.80;;;25.10;99.90;;;;;;3567147;40;20385;-68
2021/07/16 13:23:52;;;;;;;1.10;0.90;;;25.20;99.90;;;;;;3567199;40;20385;-68
2021/07/16 13:26:29;;;;;;;1.42;0.55;;;25.40;99.90;;;;;;3554778;40;20406;-68
2021/07/16 13:28:58;;;;;;;1.52;0.50;;;25.80;99.90;;;;;;3567064;40;20384;-68
2021/07/16 13:31:24;;;;;;;2.53;0.60;;;;;;;;;;3564582;40;20378;-68
2021/07/16 13:33:51;;;;;;;1.07;0.47;;;;;;;;;;3559669;40;20787;-68
2021/07/16 13:36:17;;;;;;;2.78;0.60;;;;;;;;;;3567264;40;20428;-68
2021/07/16 13:38:43;;;;;;;2.05;0.70;;;;;;;;;;3567677;40;20382;-68
2021/07/16 13:41:09;;;;;;;1.23;0.55;;;;;;;;;;3566752;40;20374;-68
2021/07/16 13:43:36;;;;;;;2.00;0.50;;;;;;;;;;3569166;40;20386;-68
2021/07/16 13:46:03;;;;;;;0.53;0.33;;;;;;;;;;3568594;40;20680;-68
2021/07/16 13:48:29;;;;;;;1.40;0.40;;;;;;;;;;3567011;40;20406;-68
2021/07/16 13:50:56;;;;;;;1.50;0.45;;;;;;;;;;3567091;40;20771;-68
2021/07/16 13:53:22;;;;;;;1.20;0.40;;;;;;;;;;3566924;40;20845;-68
2021/07/16 13:55:48;;;;;;;1.20;0.50;;;26.40;99.90;;;;;;3567136;40;20647;-68
2021/07/16 13:58:14;;;;;;;1.37;0.50;;;;;;;;;;3567000;40;20386;-68
2021/07/16 14:00:40;;;;;;;0.93;0.40;;;;;;;;;;3558720;40;20650;-68
2021/07/16 14:03:08;;;;;;;1.50;0.47;;;;;;;;;;3565490;40;20398;-68
2021/07/16 14:05:34;;;;;;;0.70;0.40;;;;;;;;;;3575528;40;20833;-68
2021/07/16 14:08:00;;;;;;;0.80;0.40;;;;;;;;;;3571881;40;20505;-68
2021/07/16 14:10:27;;;;;;;1.00;0.60;;;;;;;;;;3573464;40;20417;-68
2021/07/16 14:12:52;;;;;;;1.40;0.40;;;27.30;96.20;;;;;;3580146;40;20366;-67
2021/07/16 14:15:19;;;;;;;1.63;0.40;;;;;;;;;;3579037;40;20404;-68
2021/07/16 14:17:45;;;;;;;1.10;0.40;;;;;;;;;;3567611;40;20408;-68
2021/07/16 14:20:14;;;;;;;0.75;0.40;;;;;;;;;;3575046;40;20423;-68
2021/07/16 14:22:40;;;;;;;1.00;0.40;;;;;;;;;;3576526;40;20749;-65
2021/07/16 14:25:08;;;;;;;0.75;0.40;;;;;;;;;;3576838;40;20489;-65
2021/07/16 14:27:34;;;;;;;2.55;0.50;;;26.40;98.20;;;;;;3573826;40;20381;-66